Moundville, AL (35474)

9:29 AM CDT on September 02, 2015 (GMT -0500)
APRSWXNET | | Change Station
CLOSE
Current Station
Personal Weather Station
Location: Cypress, AL
Elevation: 209 ft
Nearby Weather Stations

Elev 209 ft 33.06 °N, 87.58 °W | Updated 28 minutes ago

Partly Cloudy
Partly Cloudy
82 °F
Feels Like 88 °F
N
2
Wind Variable Wind from NNE
Gusts 3.0 mph

Today
High -- | Low -- °F
--% Chance of Precip.
Yesterday
High -- | Low -- °F
Precip. -- in
6:25 AM 7:14 PM
Waning Gibbous, 80% visible
Pressure 30.09 in
Visibility 7.0 miles
Clouds Clear
Heat Index 88 °F
Dew Point 74 °F
Humidity 76%
Rainfall in
Snow Depth Not available.
UV 3 out of 12
Pollen 9.10 out of 12
Air Quality Not available.
Flu Activity Not available.
METAR KTCL 021353Z 00000KT 7SM CLR 27/22 A3009 RMK AO2 SLP187 T02720222
Pressure 30.09 in
Visibility 7.0 miles
Clouds Clear
Heat Index 88 °F
Dew Point 74 °F
Humidity 76%
Rainfall in
Snow Depth Not available.
UV 3 out of 12
Pollen 9.10 out of 12
Air Quality Not available.
Flu Activity Not available.
METAR KTCL 021353Z 00000KT 7SM CLR 27/22 A3009 RMK AO2 SLP187 T02720222

10-Day Weather Forecast

×

Almanac

Astronomy

Sep. 02, 2015 Rise Set
Actual Time
Civil Twilight
Nautical Twilight
Astronomical Twilight
Moon
Length of Visible Light
Length of Day
Tomorrow will be .
, % of the Moon is Illuminated

Today's Extremes

State Highs State Lows

Community

WunderPhotos

Upload Photos

1,851,763 photos uploaded!

WunderBlogs® & News

Nearby

Air Quality

  Air Quality AQ Index Pollutant
Not available.

Snow Depth

Station Depth Elevation

Earthquake Activity

City Distance Mag. Time & Date
Minimum magnitude displayed is 2.5.

Coastal Water Temperatures

Place Temperature

Stations

Nearby Weather Stations

Station Location Temp. Windchill Dew Point Humidity Wind Precip. Elev Updated Type